sensor_id;sensor_type;location;lat;lon;timestamp;P1;durP1;ratioP1;P2;durP2;ratioP2
5871;SDS011;2962;51.312;7.378;2023-11-18T00:01:08;385.53;;;30.00;;
5871;SDS011;2962;51.312;7.378;2023-11-18T00:03:34;517.93;;;34.50;;
5871;SDS011;2962;51.312;7.378;2023-11-18T00:05:59;538.53;;;40.57;;
5871;SDS011;2962;51.312;7.378;2023-11-18T00:08:24;626.33;;;41.60;;
5871;SDS011;2962;51.312;7.378;2023-11-18T00:10:50;594.50;;;37.53;;
5871;SDS011;2962;51.312;7.378;2023-11-18T00:13:15;486.47;;;35.07;;
5871;SDS011;2962;51.312;7.378;2023-11-18T00:15:40;619.47;;;37.63;;
5871;SDS011;2962;51.312;7.378;2023-11-18T00:18:07;547.65;;;39.53;;
5871;SDS011;2962;51.312;7.378;2023-11-18T00:20:32;631.27;;;38.33;;
5871;SDS011;2962;51.312;7.378;2023-11-18T00:22:58;565.97;;;36.10;;
5871;SDS011;2962;51.312;7.378;2023-11-18T00:25:24;566.70;;;35.60;;
5871;SDS011;2962;51.312;7.378;2023-11-18T00:27:49;570.23;;;36.73;;
5871;SDS011;2962;51.312;7.378;2023-11-18T00:30:14;534.73;;;37.20;;
5871;SDS011;2962;51.312;7.378;2023-11-18T00:32:40;248.43;;;27.40;;
5871;SDS011;2962;51.312;7.378;2023-11-18T00:35:05;570.97;;;38.67;;
5871;SDS011;2962;51.312;7.378;2023-11-18T00:37:32;265.52;;;27.63;;
5871;SDS011;2962;51.312;7.378;2023-11-18T00:39:58;446.20;;;32.00;;
5871;SDS011;2962;51.312;7.378;2023-11-18T00:42:23;387.83;;;30.73;;
5871;SDS011;2962;51.312;7.378;2023-11-18T00:44:48;354.07;;;27.13;;
5871;SDS011;2962;51.312;7.378;2023-11-18T00:47:14;188.67;;;21.47;;
5871;SDS011;2962;51.312;7.378;2023-11-18T00:49:39;74.70;;;19.10;;
5871;SDS011;2962;51.312;7.378;2023-11-18T00:52:05;92.40;;;19.77;;
5871;SDS011;2962;51.312;7.378;2023-11-18T00:54:30;83.17;;;18.20;;
5871;SDS011;2962;51.312;7.378;2023-11-18T00:56:56;66.77;;;16.67;;
5871;SDS011;2962;51.312;7.378;2023-11-18T00:59:21;65.20;;;19.17;;
5871;SDS011;2962;51.312;7.378;2023-11-18T01:01:46;71.77;;;18.80;;
5871;SDS011;2962;51.312;7.378;2023-11-18T01:04:13;77.78;;;18.92;;
5871;SDS011;2962;51.312;7.378;2023-11-18T01:06:38;65.77;;;20.20;;
5871;SDS011;2962;51.312;7.378;2023-11-18T01:09:04;65.67;;;18.73;;
5871;SDS011;2962;51.312;7.378;2023-11-18T01:11:29;68.00;;;17.93;;
5871;SDS011;2962;51.312;7.378;2023-11-18T01:13:54;73.67;;;18.97;;
5871;SDS011;2962;51.312;7.378;2023-11-18T01:16:20;78.50;;;20.30;;
5871;SDS011;2962;51.312;7.378;2023-11-18T01:18:46;84.13;;;19.70;;
5871;SDS011;2962;51.312;7.378;2023-11-18T01:21:11;76.23;;;19.47;;
5871;SDS011;2962;51.312;7.378;2023-11-18T01:23:37;72.07;;;20.90;;
5871;SDS011;2962;51.312;7.378;2023-11-18T01:26:03;73.97;;;19.42;;
5871;SDS011;2962;51.312;7.378;2023-11-18T01:28:30;76.60;;;19.80;;
5871;SDS011;2962;51.312;7.378;2023-11-18T01:30:58;78.93;;;20.23;;
5871;SDS011;2962;51.312;7.378;2023-11-18T01:33:23;82.40;;;21.10;;
5871;SDS011;2962;51.312;7.378;2023-11-18T01:35:49;80.53;;;21.40;;
5871;SDS011;2962;51.312;7.378;2023-11-18T01:38:14;80.43;;;21.57;;
5871;SDS011;2962;51.312;7.378;2023-11-18T01:40:39;71.80;;;20.23;;
5871;SDS011;2962;51.312;7.378;2023-11-18T01:43:04;74.07;;;20.10;;
5871;SDS011;2962;51.312;7.378;2023-11-18T01:45:36;72.57;;;20.30;;
5871;SDS011;2962;51.312;7.378;2023-11-18T01:48:01;83.50;;;21.47;;
5871;SDS011;2962;51.312;7.378;2023-11-18T01:50:27;78.03;;;20.90;;
5871;SDS011;2962;51.312;7.378;2023-11-18T01:52:53;86.43;;;21.80;;
5871;SDS011;2962;51.312;7.378;2023-11-18T01:55:18;79.93;;;21.40;;
5871;SDS011;2962;51.312;7.378;2023-11-18T01:57:43;85.33;;;20.13;;
5871;SDS011;2962;51.312;7.378;2023-11-18T02:00:10;82.93;;;20.00;;
5871;SDS011;2962;51.312;7.378;2023-11-18T02:02:37;77.20;;;19.77;;
5871;SDS011;2962;51.312;7.378;2023-11-18T02:05:03;69.77;;;20.27;;
5871;SDS011;2962;51.312;7.378;2023-11-18T02:07:31;79.45;;;21.77;;
5871;SDS011;2962;51.312;7.378;2023-11-18T02:09:58;85.93;;;22.92;;
5871;SDS011;2962;51.312;7.378;2023-11-18T02:12:29;77.57;;;22.40;;
5871;SDS011;2962;51.312;7.378;2023-11-18T02:15:00;82.10;;;22.00;;
5871;SDS011;2962;51.312;7.378;2023-11-18T02:17:27;91.65;;;23.08;;
5871;SDS011;2962;51.312;7.378;2023-11-18T02:19:54;101.68;;;23.33;;
5871;SDS011;2962;51.312;7.378;2023-11-18T02:22:21;72.00;;;22.85;;
5871;SDS011;2962;51.312;7.378;2023-11-18T02:24:47;74.17;;;22.60;;
5871;SDS011;2962;51.312;7.378;2023-11-18T02:27:12;72.80;;;21.03;;
5871;SDS011;2962;51.312;7.378;2023-11-18T02:29:39;74.18;;;21.63;;
5871;SDS011;2962;51.312;7.378;2023-11-18T02:32:28;78.80;;;21.50;;
5871;SDS011;2962;51.312;7.378;2023-11-18T02:35:04;74.00;;;19.58;;
5871;SDS011;2962;51.312;7.378;2023-11-18T02:37:35;77.10;;;19.48;;
5871;SDS011;2962;51.312;7.378;2023-11-18T02:40:03;66.45;;;19.00;;
5871;SDS011;2962;51.312;7.378;2023-11-18T02:42:43;62.75;;;19.77;;
5871;SDS011;2962;51.312;7.378;2023-11-18T02:45:10;63.85;;;19.75;;
5871;SDS011;2962;51.312;7.378;2023-11-18T02:47:41;65.45;;;20.90;;
5871;SDS011;2962;51.312;7.378;2023-11-18T02:50:07;72.47;;;21.00;;
5871;SDS011;2962;51.312;7.378;2023-11-18T02:52:42;77.78;;;21.40;;
5871;SDS011;2962;51.312;7.378;2023-11-18T02:55:07;71.85;;;20.50;;
5871;SDS011;2962;51.312;7.378;2023-11-18T02:57:37;68.70;;;21.63;;
5871;SDS011;2962;51.312;7.378;2023-11-18T03:00:03;71.97;;;22.00;;
5871;SDS011;2962;51.312;7.378;2023-11-18T03:02:30;78.60;;;22.20;;
5871;SDS011;2962;51.312;7.378;2023-11-18T03:04:59;64.53;;;20.65;;
5871;SDS011;2962;51.312;7.378;2023-11-18T03:07:25;73.53;;;22.05;;
5871;SDS011;2962;51.312;7.378;2023-11-18T03:09:52;71.40;;;21.75;;
5871;SDS011;2962;51.312;7.378;2023-11-18T03:12:22;60.85;;;21.13;;
5871;SDS011;2962;51.312;7.378;2023-11-18T03:14:47;56.23;;;18.63;;
5871;SDS011;2962;51.312;7.378;2023-11-18T03:17:13;62.83;;;21.13;;
5871;SDS011;2962;51.312;7.378;2023-11-18T03:19:38;59.80;;;19.80;;
5871;SDS011;2962;51.312;7.378;2023-11-18T03:22:04;70.33;;;21.57;;
5871;SDS011;2962;51.312;7.378;2023-11-18T03:24:29;72.73;;;22.07;;
5871;SDS011;2962;51.312;7.378;2023-11-18T03:26:55;65.97;;;20.53;;
5871;SDS011;2962;51.312;7.378;2023-11-18T03:29:20;63.50;;;20.97;;
5871;SDS011;2962;51.312;7.378;2023-11-18T03:31:48;67.27;;;20.50;;
5871;SDS011;2962;51.312;7.378;2023-11-18T03:34:14;59.17;;;18.98;;
5871;SDS011;2962;51.312;7.378;2023-11-18T03:36:40;56.45;;;19.33;;
5871;SDS011;2962;51.312;7.378;2023-11-18T03:39:06;58.27;;;21.00;;
5871;SDS011;2962;51.312;7.378;2023-11-18T03:41:31;60.53;;;20.87;;
5871;SDS011;2962;51.312;7.378;2023-11-18T03:43:57;64.10;;;20.07;;
5871;SDS011;2962;51.312;7.378;2023-11-18T03:46:22;60.37;;;19.27;;
5871;SDS011;2962;51.312;7.378;2023-11-18T03:48:47;52.67;;;18.83;;
5871;SDS011;2962;51.312;7.378;2023-11-18T03:51:13;63.77;;;20.13;;
5871;SDS011;2962;51.312;7.378;2023-11-18T03:53:41;58.10;;;18.67;;
5871;SDS011;2962;51.312;7.378;2023-11-18T03:56:07;54.70;;;20.17;;
5871;SDS011;2962;51.312;7.378;2023-11-18T03:58:33;44.97;;;18.77;;
5871;SDS011;2962;51.312;7.378;2023-11-18T04:00:59;57.10;;;19.05;;
5871;SDS011;2962;51.312;7.378;2023-11-18T04:03:25;49.63;;;19.00;;
5871;SDS011;2962;51.312;7.378;2023-11-18T04:05:50;60.10;;;18.63;;
5871;SDS011;2962;51.312;7.378;2023-11-18T04:08:15;60.30;;;20.40;;
5871;SDS011;2962;51.312;7.378;2023-11-18T04:10:40;57.50;;;19.57;;
5871;SDS011;2962;51.312;7.378;2023-11-18T04:13:06;58.37;;;19.13;;
5871;SDS011;2962;51.312;7.378;2023-11-18T04:15:32;55.60;;;19.30;;
5871;SDS011;2962;51.312;7.378;2023-11-18T04:17:57;58.27;;;19.70;;
5871;SDS011;2962;51.312;7.378;2023-11-18T04:20:22;52.00;;;19.37;;
5871;SDS011;2962;51.312;7.378;2023-11-18T04:22:48;53.07;;;20.13;;
5871;SDS011;2962;51.312;7.378;2023-11-18T04:25:13;46.57;;;18.53;;
5871;SDS011;2962;51.312;7.378;2023-11-18T04:27:40;52.85;;;18.50;;
5871;SDS011;2962;51.312;7.378;2023-11-18T04:30:05;55.33;;;18.83;;
5871;SDS011;2962;51.312;7.378;2023-11-18T04:32:31;52.37;;;19.50;;
5871;SDS011;2962;51.312;7.378;2023-11-18T04:34:59;57.40;;;20.20;;
5871;SDS011;2962;51.312;7.378;2023-11-18T04:37:25;52.10;;;20.10;;
5871;SDS011;2962;51.312;7.378;2023-11-18T04:39:51;51.83;;;19.83;;
5871;SDS011;2962;51.312;7.378;2023-11-18T04:42:16;52.80;;;20.40;;
5871;SDS011;2962;51.312;7.378;2023-11-18T04:44:42;53.13;;;19.40;;
5871;SDS011;2962;51.312;7.378;2023-11-18T04:47:07;53.57;;;19.90;;
5871;SDS011;2962;51.312;7.378;2023-11-18T04:49:32;43.17;;;18.30;;
5871;SDS011;2962;51.312;7.378;2023-11-18T04:51:58;48.77;;;18.90;;
5871;SDS011;2962;51.312;7.378;2023-11-18T04:54:24;57.00;;;20.03;;
5871;SDS011;2962;51.312;7.378;2023-11-18T04:56:50;46.05;;;18.13;;
5871;SDS011;2962;51.312;7.378;2023-11-18T04:59:16;47.47;;;18.13;;
5871;SDS011;2962;51.312;7.378;2023-11-18T05:01:42;46.00;;;18.42;;
5871;SDS011;2962;51.312;7.378;2023-11-18T05:04:08;46.47;;;19.00;;
5871;SDS011;2962;51.312;7.378;2023-11-18T05:06:33;45.37;;;18.27;;
5871;SDS011;2962;51.312;7.378;2023-11-18T05:08:58;52.50;;;18.63;;
5871;SDS011;2962;51.312;7.378;2023-11-18T05:11:24;50.23;;;18.13;;
5871;SDS011;2962;51.312;7.378;2023-11-18T05:13:49;46.60;;;18.63;;
5871;SDS011;2962;51.312;7.378;2023-11-18T05:16:14;47.03;;;17.47;;
5871;SDS011;2962;51.312;7.378;2023-11-18T05:18:40;55.93;;;19.47;;
5871;SDS011;2962;51.312;7.378;2023-11-18T05:21:05;54.13;;;17.57;;
5871;SDS011;2962;51.312;7.378;2023-11-18T05:23:31;51.60;;;18.83;;
5871;SDS011;2962;51.312;7.378;2023-11-18T05:25:59;48.15;;;17.92;;
5871;SDS011;2962;51.312;7.378;2023-11-18T05:28:24;47.00;;;16.83;;
5871;SDS011;2962;51.312;7.378;2023-11-18T05:30:49;46.30;;;17.00;;
5871;SDS011;2962;51.312;7.378;2023-11-18T05:33:15;47.23;;;18.43;;
5871;SDS011;2962;51.312;7.378;2023-11-18T05:35:43;47.30;;;16.80;;
5871;SDS011;2962;51.312;7.378;2023-11-18T05:38:14;49.22;;;18.70;;
5871;SDS011;2962;51.312;7.378;2023-11-18T05:40:43;37.78;;;15.70;;
5871;SDS011;2962;51.312;7.378;2023-11-18T05:43:14;45.80;;;18.67;;
5871;SDS011;2962;51.312;7.378;2023-11-18T05:45:41;49.63;;;17.30;;
5871;SDS011;2962;51.312;7.378;2023-11-18T05:48:27;45.78;;;17.52;;
5871;SDS011;2962;51.312;7.378;2023-11-18T05:50:52;45.30;;;17.77;;
5871;SDS011;2962;51.312;7.378;2023-11-18T05:53:17;57.70;;;17.97;;
5871;SDS011;2962;51.312;7.378;2023-11-18T05:55:42;47.03;;;19.17;;
5871;SDS011;2962;51.312;7.378;2023-11-18T05:58:08;49.33;;;19.00;;
5871;SDS011;2962;51.312;7.378;2023-11-18T06:00:33;50.43;;;18.00;;
5871;SDS011;2962;51.312;7.378;2023-11-18T06:02:59;46.30;;;17.03;;
5871;SDS011;2962;51.312;7.378;2023-11-18T06:05:25;46.97;;;18.17;;
5871;SDS011;2962;51.312;7.378;2023-11-18T06:07:54;43.25;;;16.45;;
5871;SDS011;2962;51.312;7.378;2023-11-18T06:10:19;48.07;;;17.83;;
5871;SDS011;2962;51.312;7.378;2023-11-18T06:12:45;43.10;;;17.77;;
5871;SDS011;2962;51.312;7.378;2023-11-18T06:15:11;49.85;;;17.80;;
5871;SDS011;2962;51.312;7.378;2023-11-18T06:17:39;47.90;;;17.40;;
5871;SDS011;2962;51.312;7.378;2023-11-18T06:20:05;44.13;;;18.17;;
5871;SDS011;2962;51.312;7.378;2023-11-18T06:22:31;46.20;;;16.67;;
5871;SDS011;2962;51.312;7.378;2023-11-18T06:24:56;45.23;;;18.87;;
5871;SDS011;2962;51.312;7.378;2023-11-18T06:27:22;47.70;;;19.03;;
5871;SDS011;2962;51.312;7.378;2023-11-18T06:29:49;46.22;;;18.58;;
5871;SDS011;2962;51.312;7.378;2023-11-18T06:32:15;55.43;;;18.90;;
5871;SDS011;2962;51.312;7.378;2023-11-18T06:34:41;48.17;;;19.07;;
5871;SDS011;2962;51.312;7.378;2023-11-18T06:37:06;43.43;;;17.43;;
5871;SDS011;2962;51.312;7.378;2023-11-18T06:39:32;48.10;;;17.43;;
5871;SDS011;2962;51.312;7.378;2023-11-18T06:42:00;50.75;;;20.08;;
5871;SDS011;2962;51.312;7.378;2023-11-18T06:44:26;45.80;;;18.27;;
5871;SDS011;2962;51.312;7.378;2023-11-18T06:46:51;51.83;;;19.80;;
5871;SDS011;2962;51.312;7.378;2023-11-18T06:49:17;54.37;;;19.20;;
5871;SDS011;2962;51.312;7.378;2023-11-18T06:51:42;46.20;;;16.40;;
5871;SDS011;2962;51.312;7.378;2023-11-18T06:54:08;50.93;;;18.23;;
5871;SDS011;2962;51.312;7.378;2023-11-18T06:56:38;51.60;;;21.20;;
5871;SDS011;2962;51.312;7.378;2023-11-18T06:59:07;48.70;;;18.10;;
5871;SDS011;2962;51.312;7.378;2023-11-18T07:01:35;50.03;;;18.48;;
5871;SDS011;2962;51.312;7.378;2023-11-18T07:04:00;50.17;;;18.20;;
5871;SDS011;2962;51.312;7.378;2023-11-18T07:06:26;56.47;;;18.67;;
5871;SDS011;2962;51.312;7.378;2023-11-18T07:08:52;44.60;;;17.73;;
5871;SDS011;2962;51.312;7.378;2023-11-18T07:11:19;48.38;;;18.35;;
5871;SDS011;2962;51.312;7.378;2023-11-18T07:13:48;58.65;;;20.05;;
5871;SDS011;2962;51.312;7.378;2023-11-18T07:16:21;49.85;;;18.38;;
5871;SDS011;2962;51.312;7.378;2023-11-18T07:18:48;46.80;;;19.02;;
5871;SDS011;2962;51.312;7.378;2023-11-18T07:21:13;44.53;;;18.10;;
5871;SDS011;2962;51.312;7.378;2023-11-18T07:23:39;50.28;;;18.20;;
5871;SDS011;2962;51.312;7.378;2023-11-18T07:26:04;51.50;;;17.53;;
5871;SDS011;2962;51.312;7.378;2023-11-18T07:28:29;50.97;;;19.13;;
5871;SDS011;2962;51.312;7.378;2023-11-18T07:30:56;58.28;;;18.48;;
5871;SDS011;2962;51.312;7.378;2023-11-18T07:33:23;47.97;;;18.58;;
5871;SDS011;2962;51.312;7.378;2023-11-18T07:35:48;50.30;;;18.50;;
5871;SDS011;2962;51.312;7.378;2023-11-18T07:38:17;41.70;;;17.07;;
5871;SDS011;2962;51.312;7.378;2023-11-18T07:40:45;44.45;;;17.67;;
5871;SDS011;2962;51.312;7.378;2023-11-18T07:43:11;47.30;;;18.43;;
5871;SDS011;2962;51.312;7.378;2023-11-18T07:45:37;39.35;;;16.17;;
5871;SDS011;2962;51.312;7.378;2023-11-18T07:48:04;43.78;;;16.05;;
5871;SDS011;2962;51.312;7.378;2023-11-18T07:50:34;44.47;;;16.58;;
5871;SDS011;2962;51.312;7.378;2023-11-18T07:53:00;48.40;;;15.82;;
5871;SDS011;2962;51.312;7.378;2023-11-18T07:55:26;37.67;;;15.60;;
5871;SDS011;2962;51.312;7.378;2023-11-18T07:57:51;37.97;;;14.60;;
5871;SDS011;2962;51.312;7.378;2023-11-18T08:00:17;33.50;;;13.70;;
5871;SDS011;2962;51.312;7.378;2023-11-18T08:02:42;26.83;;;13.03;;
5871;SDS011;2962;51.312;7.378;2023-11-18T08:05:09;38.65;;;16.67;;
5871;SDS011;2962;51.312;7.378;2023-11-18T08:07:38;34.05;;;15.02;;
5871;SDS011;2962;51.312;7.378;2023-11-18T08:10:05;35.83;;;13.98;;
5871;SDS011;2962;51.312;7.378;2023-11-18T08:12:31;26.33;;;12.60;;
5871;SDS011;2962;51.312;7.378;2023-11-18T08:14:57;34.42;;;13.82;;
5871;SDS011;2962;51.312;7.378;2023-11-18T08:17:24;33.72;;;12.57;;
5871;SDS011;2962;51.312;7.378;2023-11-18T08:19:50;31.67;;;13.38;;
5871;SDS011;2962;51.312;7.378;2023-11-18T08:22:17;29.23;;;12.60;;
5871;SDS011;2962;51.312;7.378;2023-11-18T08:24:43;32.53;;;12.82;;
5871;SDS011;2962;51.312;7.378;2023-11-18T08:27:09;22.37;;;11.10;;
5871;SDS011;2962;51.312;7.378;2023-11-18T08:29:34;24.90;;;11.20;;
5871;SDS011;2962;51.312;7.378;2023-11-18T08:32:00;28.87;;;11.87;;
5871;SDS011;2962;51.312;7.378;2023-11-18T08:34:25;22.40;;;11.67;;
5871;SDS011;2962;51.312;7.378;2023-11-18T08:36:51;23.50;;;12.27;;
5871;SDS011;2962;51.312;7.378;2023-11-18T08:39:16;30.27;;;10.60;;
5871;SDS011;2962;51.312;7.378;2023-11-18T08:41:45;26.70;;;10.90;;
5871;SDS011;2962;51.312;7.378;2023-11-18T08:44:11;27.67;;;10.60;;
5871;SDS011;2962;51.312;7.378;2023-11-18T08:46:38;23.83;;;10.20;;
5871;SDS011;2962;51.312;7.378;2023-11-18T08:49:03;20.90;;;9.87;;
5871;SDS011;2962;51.312;7.378;2023-11-18T08:51:35;20.98;;;10.05;;
5871;SDS011;2962;51.312;7.378;2023-11-18T08:54:02;16.30;;;9.33;;
5871;SDS011;2962;51.312;7.378;2023-11-18T08:56:42;20.07;;;9.20;;
5871;SDS011;2962;51.312;7.378;2023-11-18T08:59:10;13.00;;;8.15;;
5871;SDS011;2962;51.312;7.378;2023-11-18T09:01:36;27.10;;;10.30;;
5871;SDS011;2962;51.312;7.378;2023-11-18T09:04:01;21.10;;;9.87;;
5871;SDS011;2962;51.312;7.378;2023-11-18T09:06:26;19.43;;;8.93;;
5871;SDS011;2962;51.312;7.378;2023-11-18T09:08:53;15.80;;;8.77;;
5871;SDS011;2962;51.312;7.378;2023-11-18T09:11:19;18.43;;;8.67;;
5871;SDS011;2962;51.312;7.378;2023-11-18T09:13:47;21.40;;;9.55;;
5871;SDS011;2962;51.312;7.378;2023-11-18T09:16:14;17.38;;;9.45;;
5871;SDS011;2962;51.312;7.378;2023-11-18T09:18:41;16.10;;;9.65;;
5871;SDS011;2962;51.312;7.378;2023-11-18T09:21:10;13.03;;;7.80;;
5871;SDS011;2962;51.312;7.378;2023-11-18T09:23:45;18.42;;;8.40;;
5871;SDS011;2962;51.312;7.378;2023-11-18T09:26:13;18.83;;;8.30;;
5871;SDS011;2962;51.312;7.378;2023-11-18T09:28:39;15.90;;;8.80;;
5871;SDS011;2962;51.312;7.378;2023-11-18T09:31:06;15.40;;;8.30;;
5871;SDS011;2962;51.312;7.378;2023-11-18T09:33:36;16.17;;;8.87;;
5871;SDS011;2962;51.312;7.378;2023-11-18T09:36:02;16.07;;;8.73;;
5871;SDS011;2962;51.312;7.378;2023-11-18T09:38:33;19.33;;;8.77;;
5871;SDS011;2962;51.312;7.378;2023-11-18T09:41:03;22.55;;;9.85;;
5871;SDS011;2962;51.312;7.378;2023-11-18T09:43:32;18.80;;;10.27;;
5871;SDS011;2962;51.312;7.378;2023-11-18T09:46:05;21.53;;;9.70;;
5871;SDS011;2962;51.312;7.378;2023-11-18T09:48:51;18.33;;;9.13;;
5871;SDS011;2962;51.312;7.378;2023-11-18T09:53:48;17.50;;;9.20;;
5871;SDS011;2962;51.312;7.378;2023-11-18T09:59:05;17.87;;;9.50;;
5871;SDS011;2962;51.312;7.378;2023-11-18T10:01:40;17.13;;;9.60;;
5871;SDS011;2962;51.312;7.378;2023-11-18T10:04:09;18.40;;;9.48;;
5871;SDS011;2962;51.312;7.378;2023-11-18T10:06:35;18.03;;;9.43;;
5871;SDS011;2962;51.312;7.378;2023-11-18T10:09:03;21.70;;;8.43;;
5871;SDS011;2962;51.312;7.378;2023-11-18T10:11:40;21.80;;;9.87;;
5871;SDS011;2962;51.312;7.378;2023-11-18T10:14:07;16.70;;;8.90;;
5871;SDS011;2962;51.312;7.378;2023-11-18T10:16:33;18.03;;;9.10;;
5871;SDS011;2962;51.312;7.378;2023-11-18T10:18:59;19.37;;;10.40;;
5871;SDS011;2962;51.312;7.378;2023-11-18T10:21:34;15.07;;;9.93;;
5871;SDS011;2962;51.312;7.378;2023-11-18T10:24:04;22.25;;;10.57;;
5871;SDS011;2962;51.312;7.378;2023-11-18T10:26:35;18.67;;;8.83;;
5871;SDS011;2962;51.312;7.378;2023-11-18T10:29:03;22.63;;;10.00;;
5871;SDS011;2962;51.312;7.378;2023-11-18T10:31:33;22.07;;;10.20;;
5871;SDS011;2962;51.312;7.378;2023-11-18T10:34:00;19.30;;;9.10;;
5871;SDS011;2962;51.312;7.378;2023-11-18T10:36:26;21.43;;;10.20;;
5871;SDS011;2962;51.312;7.378;2023-11-18T10:38:52;14.47;;;8.60;;
5871;SDS011;2962;51.312;7.378;2023-11-18T10:41:20;16.13;;;9.10;;
5871;SDS011;2962;51.312;7.378;2023-11-18T10:43:48;15.77;;;8.80;;
5871;SDS011;2962;51.312;7.378;2023-11-18T10:46:14;21.53;;;8.70;;
5871;SDS011;2962;51.312;7.378;2023-11-18T10:48:42;17.83;;;8.93;;
5871;SDS011;2962;51.312;7.378;2023-11-18T10:51:09;19.33;;;9.80;;
5871;SDS011;2962;51.312;7.378;2023-11-18T10:53:41;17.80;;;9.53;;
5871;SDS011;2962;51.312;7.378;2023-11-18T10:56:32;16.90;;;8.77;;
5871;SDS011;2962;51.312;7.378;2023-11-18T10:59:04;16.83;;;9.30;;
5871;SDS011;2962;51.312;7.378;2023-11-18T11:01:34;14.10;;;8.70;;
5871;SDS011;2962;51.312;7.378;2023-11-18T11:04:07;17.20;;;8.60;;
5871;SDS011;2962;51.312;7.378;2023-11-18T11:06:35;13.57;;;9.27;;
5871;SDS011;2962;51.312;7.378;2023-11-18T11:09:06;13.57;;;8.13;;
5871;SDS011;2962;51.312;7.378;2023-11-18T11:11:39;11.50;;;8.87;;
5871;SDS011;2962;51.312;7.378;2023-11-18T11:14:11;13.63;;;7.60;;
5871;SDS011;2962;51.312;7.378;2023-11-18T11:16:42;13.37;;;8.50;;
5871;SDS011;2962;51.312;7.378;2023-11-18T11:19:13;15.00;;;8.07;;
5871;SDS011;2962;51.312;7.378;2023-11-18T11:21:50;13.93;;;7.93;;
5871;SDS011;2962;51.312;7.378;2023-11-18T11:27:13;12.93;;;8.10;;
5871;SDS011;2962;51.312;7.378;2023-11-18T11:30:01;15.10;;;9.00;;
5871;SDS011;2962;51.312;7.378;2023-11-18T11:32:38;16.30;;;7.93;;
5871;SDS011;2962;51.312;7.378;2023-11-18T11:35:14;9.60;;;7.43;;
5871;SDS011;2962;51.312;7.378;2023-11-18T11:37:46;10.13;;;7.40;;
5871;SDS011;2962;51.312;7.378;2023-11-18T11:40:13;12.20;;;7.37;;
5871;SDS011;2962;51.312;7.378;2023-11-18T11:42:46;11.80;;;7.37;;
5871;SDS011;2962;51.312;7.378;2023-11-18T11:45:19;14.10;;;7.77;;
5871;SDS011;2962;51.312;7.378;2023-11-18T11:47:50;12.47;;;7.33;;
5871;SDS011;2962;51.312;7.378;2023-11-18T11:50:19;13.43;;;6.70;;
5871;SDS011;2962;51.312;7.378;2023-11-18T11:53:06;9.70;;;6.50;;
5871;SDS011;2962;51.312;7.378;2023-11-18T11:55:49;15.90;;;7.07;;
5871;SDS011;2962;51.312;7.378;2023-11-18T11:58:26;10.23;;;6.50;;
5871;SDS011;2962;51.312;7.378;2023-11-18T12:00:52;9.73;;;7.07;;
5871;SDS011;2962;51.312;7.378;2023-11-18T12:03:22;7.70;;;7.00;;
5871;SDS011;2962;51.312;7.378;2023-11-18T12:05:54;7.60;;;6.90;;
5871;SDS011;2962;51.312;7.378;2023-11-18T12:08:33;13.80;;;5.87;;
5871;SDS011;2962;51.312;7.378;2023-11-18T12:11:05;10.70;;;6.93;;
5871;SDS011;2962;51.312;7.378;2023-11-18T12:13:34;9.80;;;6.53;;
5871;SDS011;2962;51.312;7.378;2023-11-18T12:16:04;10.10;;;6.37;;
5871;SDS011;2962;51.312;7.378;2023-11-18T12:18:36;7.93;;;6.60;;
5871;SDS011;2962;51.312;7.378;2023-11-18T12:21:02;7.37;;;5.30;;
5871;SDS011;2962;51.312;7.378;2023-11-18T12:23:29;10.73;;;6.97;;
5871;SDS011;2962;51.312;7.378;2023-11-18T12:26:38;8.93;;;6.83;;
5871;SDS011;2962;51.312;7.378;2023-11-18T12:29:22;13.63;;;8.20;;
5871;SDS011;2962;51.312;7.378;2023-11-18T12:31:59;10.00;;;7.00;;
5871;SDS011;2962;51.312;7.378;2023-11-18T12:34:50;17.03;;;7.30;;
5871;SDS011;2962;51.312;7.378;2023-11-18T12:37:33;12.13;;;6.90;;
5871;SDS011;2962;51.312;7.378;2023-11-18T12:40:36;9.63;;;6.80;;
5871;SDS011;2962;51.312;7.378;2023-11-18T12:43:20;8.60;;;6.83;;
5871;SDS011;2962;51.312;7.378;2023-11-18T12:46:20;7.90;;;6.60;;
5871;SDS011;2962;51.312;7.378;2023-11-18T12:49:42;13.03;;;7.00;;
5871;SDS011;2962;51.312;7.378;2023-11-18T12:52:16;15.67;;;8.03;;
5871;SDS011;2962;51.312;7.378;2023-11-18T12:54:56;10.50;;;6.80;;
5871;SDS011;2962;51.312;7.378;2023-11-18T12:57:26;11.13;;;6.80;;
5871;SDS011;2962;51.312;7.378;2023-11-18T12:59:56;8.47;;;7.03;;
5871;SDS011;2962;51.312;7.378;2023-11-18T13:02:22;12.43;;;7.40;;
5871;SDS011;2962;51.312;7.378;2023-11-18T13:04:48;10.53;;;8.37;;
5871;SDS011;2962;51.312;7.378;2023-11-18T13:07:15;15.20;;;7.93;;
5871;SDS011;2962;51.312;7.378;2023-11-18T13:09:42;9.93;;;7.00;;
5871;SDS011;2962;51.312;7.378;2023-11-18T13:12:09;11.17;;;6.57;;
5871;SDS011;2962;51.312;7.378;2023-11-18T13:14:35;9.77;;;7.30;;
5871;SDS011;2962;51.312;7.378;2023-11-18T13:17:02;13.13;;;7.30;;
5871;SDS011;2962;51.312;7.378;2023-11-18T13:19:31;11.30;;;7.23;;
5871;SDS011;2962;51.312;7.378;2023-11-18T13:24:34;17.23;;;7.90;;
5871;SDS011;2962;51.312;7.378;2023-11-18T13:27:01;10.90;;;7.37;;
5871;SDS011;2962;51.312;7.378;2023-11-18T13:29:29;8.93;;;6.47;;
5871;SDS011;2962;51.312;7.378;2023-11-18T13:31:55;21.03;;;7.37;;
5871;SDS011;2962;51.312;7.378;2023-11-18T13:34:22;10.10;;;7.53;;
5871;SDS011;2962;51.312;7.378;2023-11-18T13:36:48;16.80;;;7.90;;
5871;SDS011;2962;51.312;7.378;2023-11-18T13:39:15;18.50;;;6.33;;
5871;SDS011;2962;51.312;7.378;2023-11-18T13:41:42;13.47;;;7.50;;
5871;SDS011;2962;51.312;7.378;2023-11-18T13:44:07;13.50;;;7.53;;
5871;SDS011;2962;51.312;7.378;2023-11-18T13:46:37;10.73;;;8.27;;
5871;SDS011;2962;51.312;7.378;2023-11-18T13:49:06;22.83;;;7.50;;
5871;SDS011;2962;51.312;7.378;2023-11-18T13:51:32;13.23;;;7.50;;
5871;SDS011;2962;51.312;7.378;2023-11-18T13:54:00;9.50;;;7.00;;
5871;SDS011;2962;51.312;7.378;2023-11-18T13:56:26;19.97;;;7.90;;
5871;SDS011;2962;51.312;7.378;2023-11-18T13:58:53;12.90;;;7.60;;
5871;SDS011;2962;51.312;7.378;2023-11-18T14:01:19;13.67;;;7.37;;
5871;SDS011;2962;51.312;7.378;2023-11-18T14:03:45;8.67;;;5.70;;
5871;SDS011;2962;51.312;7.378;2023-11-18T14:06:12;14.03;;;7.20;;
5871;SDS011;2962;51.312;7.378;2023-11-18T14:08:42;10.53;;;5.93;;
5871;SDS011;2962;51.312;7.378;2023-11-18T14:11:08;9.40;;;7.20;;
5871;SDS011;2962;51.312;7.378;2023-11-18T14:13:34;8.97;;;7.10;;
5871;SDS011;2962;51.312;7.378;2023-11-18T14:16:01;10.23;;;6.53;;
5871;SDS011;2962;51.312;7.378;2023-11-18T14:18:27;7.00;;;6.30;;
5871;SDS011;2962;51.312;7.378;2023-11-18T14:20:52;11.13;;;6.10;;
5871;SDS011;2962;51.312;7.378;2023-11-18T14:23:18;9.53;;;6.03;;
5871;SDS011;2962;51.312;7.378;2023-11-18T14:25:44;6.90;;;5.43;;
5871;SDS011;2962;51.312;7.378;2023-11-18T14:28:10;5.10;;;4.60;;
5871;SDS011;2962;51.312;7.378;2023-11-18T14:30:36;5.77;;;4.57;;
5871;SDS011;2962;51.312;7.378;2023-11-18T14:33:01;5.63;;;4.60;;
5871;SDS011;2962;51.312;7.378;2023-11-18T14:35:27;7.83;;;5.17;;
5871;SDS011;2962;51.312;7.378;2023-11-18T14:37:52;7.80;;;4.23;;
5871;SDS011;2962;51.312;7.378;2023-11-18T14:40:17;8.07;;;4.13;;
5871;SDS011;2962;51.312;7.378;2023-11-18T14:42:44;8.23;;;4.37;;
5871;SDS011;2962;51.312;7.378;2023-11-18T14:45:12;6.70;;;4.27;;
5871;SDS011;2962;51.312;7.378;2023-11-18T14:47:39;6.93;;;4.17;;
5871;SDS011;2962;51.312;7.378;2023-11-18T14:50:13;13.50;;;4.37;;
5871;SDS011;2962;51.312;7.378;2023-11-18T14:52:45;4.07;;;3.67;;
5871;SDS011;2962;51.312;7.378;2023-11-18T14:55:21;3.97;;;3.67;;
5871;SDS011;2962;51.312;7.378;2023-11-18T14:57:46;4.33;;;3.90;;
5871;SDS011;2962;51.312;7.378;2023-11-18T15:00:12;4.80;;;4.40;;
5871;SDS011;2962;51.312;7.378;2023-11-18T15:02:50;5.97;;;4.17;;
5871;SDS011;2962;51.312;7.378;2023-11-18T15:05:20;6.07;;;4.00;;
5871;SDS011;2962;51.312;7.378;2023-11-18T15:07:47;9.40;;;4.30;;
5871;SDS011;2962;51.312;7.378;2023-11-18T15:10:16;7.80;;;5.37;;